Terminal Aerodrome Forecast
Issued by NWS Melbourne, FL

Home | Current Version | Previous Version | Text Only | Print | Product List | Glossary On
Versions: 1 2 3 4 5 6 7 8 9 10 11 12
000
FTUS42 KMLB 270534
TAFMLB
TAF
KMLB 270534Z 2706/2806 08007KT P6SM VCSH FEW035 BKN080
     FM271500 07012KT P6SM VCSH SCT040 SCT080=

USA.gov is the U.S. government's official web portal to all federal, state and local government web resources and services.